sensor_id;sensor_type;location;lat;lon;timestamp;P1;durP1;ratioP1;P2;durP2;ratioP2
41532;SDS011;27262;-35.248;149.138;2022-07-05T00:01:32;1.77;;;0.47;;
41532;SDS011;27262;-35.248;149.138;2022-07-05T00:04:03;0.35;;;0.20;;
41532;SDS011;27262;-35.248;149.138;2022-07-05T00:06:33;0.65;;;0.30;;
41532;SDS011;27262;-35.248;149.138;2022-07-05T00:09:03;1.65;;;0.20;;
41532;SDS011;27262;-35.248;149.138;2022-07-05T00:11:33;2.85;;;0.30;;
41532;SDS011;27262;-35.248;149.138;2022-07-05T00:14:07;1.50;;;0.63;;
41532;SDS011;27262;-35.248;149.138;2022-07-05T00:16:37;2.00;;;0.80;;
41532;SDS011;27262;-35.248;149.138;2022-07-05T00:19:07;3.22;;;0.40;;
41532;SDS011;27262;-35.248;149.138;2022-07-05T00:21:37;1.70;;;0.73;;
41532;SDS011;27262;-35.248;149.138;2022-07-05T00:24:08;2.55;;;0.70;;
41532;SDS011;27262;-35.248;149.138;2022-07-05T00:26:38;1.38;;;0.43;;
41532;SDS011;27262;-35.248;149.138;2022-07-05T00:29:08;2.67;;;0.50;;
41532;SDS011;27262;-35.248;149.138;2022-07-05T00:31:38;0.93;;;0.50;;
41532;SDS011;27262;-35.248;149.138;2022-07-05T00:34:09;3.55;;;0.50;;
41532;SDS011;27262;-35.248;149.138;2022-07-05T00:36:39;1.48;;;0.30;;
41532;SDS011;27262;-35.248;149.138;2022-07-05T00:39:10;1.27;;;0.40;;
41532;SDS011;27262;-35.248;149.138;2022-07-05T00:41:41;0.25;;;0.20;;
41532;SDS011;27262;-35.248;149.138;2022-07-05T00:44:12;0.93;;;0.50;;
41532;SDS011;27262;-35.248;149.138;2022-07-05T00:46:43;1.02;;;0.30;;
41532;SDS011;27262;-35.248;149.138;2022-07-05T00:49:14;0.85;;;0.45;;
41532;SDS011;27262;-35.248;149.138;2022-07-05T00:51:44;3.13;;;0.40;;
41532;SDS011;27262;-35.248;149.138;2022-07-05T00:54:35;0.90;;;0.40;;
41532;SDS011;27262;-35.248;149.138;2022-07-05T00:57:07;0.85;;;0.30;;
41532;SDS011;27262;-35.248;149.138;2022-07-05T00:59:37;3.15;;;0.35;;
41532;SDS011;27262;-35.248;149.138;2022-07-05T01:02:08;0.40;;;0.30;;
41532;SDS011;27262;-35.248;149.138;2022-07-05T01:04:44;0.30;;;0.30;;
41532;SDS011;27262;-35.248;149.138;2022-07-05T01:07:20;0.40;;;0.20;;
41532;SDS011;27262;-35.248;149.138;2022-07-05T01:09:52;2.15;;;0.30;;
41532;SDS011;27262;-35.248;149.138;2022-07-05T01:12:22;1.52;;;0.38;;
41532;SDS011;27262;-35.248;149.138;2022-07-05T01:14:52;2.13;;;0.45;;
41532;SDS011;27262;-35.248;149.138;2022-07-05T01:17:24;3.83;;;0.20;;
41532;SDS011;27262;-35.248;149.138;2022-07-05T01:19:54;0.98;;;0.20;;
41532;SDS011;27262;-35.248;149.138;2022-07-05T01:22:25;0.35;;;0.35;;
41532;SDS011;27262;-35.248;149.138;2022-07-05T01:24:56;0.57;;;0.30;;
41532;SDS011;27262;-35.248;149.138;2022-07-05T01:27:26;2.08;;;0.40;;
41532;SDS011;27262;-35.248;149.138;2022-07-05T01:29:56;0.90;;;0.30;;
41532;SDS011;27262;-35.248;149.138;2022-07-05T01:32:27;1.08;;;0.30;;
41532;SDS011;27262;-35.248;149.138;2022-07-05T01:34:57;1.00;;;0.20;;
41532;SDS011;27262;-35.248;149.138;2022-07-05T01:37:28;0.77;;;0.20;;
41532;SDS011;27262;-35.248;149.138;2022-07-05T01:40:01;0.68;;;0.32;;
41532;SDS011;27262;-35.248;149.138;2022-07-05T01:42:32;0.95;;;0.20;;
41532;SDS011;27262;-35.248;149.138;2022-07-05T01:45:03;2.47;;;0.20;;
41532;SDS011;27262;-35.248;149.138;2022-07-05T01:47:38;2.10;;;0.20;;
41532;SDS011;27262;-35.248;149.138;2022-07-05T01:50:15;0.30;;;0.28;;
41532;SDS011;27262;-35.248;149.138;2022-07-05T01:52:49;1.90;;;0.38;;
41532;SDS011;27262;-35.248;149.138;2022-07-05T01:55:21;2.17;;;0.30;;
41532;SDS011;27262;-35.248;149.138;2022-07-05T01:57:51;0.30;;;0.20;;
41532;SDS011;27262;-35.248;149.138;2022-07-05T02:00:21;0.85;;;0.25;;
41532;SDS011;27262;-35.248;149.138;2022-07-05T02:02:52;0.43;;;0.32;;
41532;SDS011;27262;-35.248;149.138;2022-07-05T02:05:24;0.73;;;0.47;;
41532;SDS011;27262;-35.248;149.138;2022-07-05T02:07:54;0.57;;;0.28;;
41532;SDS011;27262;-35.248;149.138;2022-07-05T02:10:24;2.78;;;0.40;;
41532;SDS011;27262;-35.248;149.138;2022-07-05T02:12:55;0.77;;;0.30;;
41532;SDS011;27262;-35.248;149.138;2022-07-05T02:15:25;1.67;;;0.20;;
41532;SDS011;27262;-35.248;149.138;2022-07-05T02:17:56;0.85;;;0.30;;
41532;SDS011;27262;-35.248;149.138;2022-07-05T02:20:26;2.20;;;0.32;;
41532;SDS011;27262;-35.248;149.138;2022-07-05T02:22:57;0.30;;;0.30;;
41532;SDS011;27262;-35.248;149.138;2022-07-05T02:25:27;1.17;;;0.52;;
41532;SDS011;27262;-35.248;149.138;2022-07-05T02:27:58;0.65;;;0.40;;
41532;SDS011;27262;-35.248;149.138;2022-07-05T02:30:28;0.60;;;0.40;;
41532;SDS011;27262;-35.248;149.138;2022-07-05T02:32:59;3.92;;;0.70;;
41532;SDS011;27262;-35.248;149.138;2022-07-05T02:35:29;1.55;;;0.73;;
41532;SDS011;27262;-35.248;149.138;2022-07-05T02:37:59;3.63;;;0.90;;
41532;SDS011;27262;-35.248;149.138;2022-07-05T02:40:29;2.80;;;1.02;;
41532;SDS011;27262;-35.248;149.138;2022-07-05T02:43:00;2.55;;;1.10;;
41532;SDS011;27262;-35.248;149.138;2022-07-05T02:45:30;2.08;;;0.95;;
41532;SDS011;27262;-35.248;149.138;2022-07-05T02:48:00;2.30;;;0.90;;
41532;SDS011;27262;-35.248;149.138;2022-07-05T02:50:31;2.92;;;0.80;;
41532;SDS011;27262;-35.248;149.138;2022-07-05T02:53:01;2.75;;;0.77;;
41532;SDS011;27262;-35.248;149.138;2022-07-05T02:55:31;5.97;;;1.13;;
41532;SDS011;27262;-35.248;149.138;2022-07-05T02:58:01;2.95;;;0.85;;
41532;SDS011;27262;-35.248;149.138;2022-07-05T03:00:32;3.90;;;0.95;;
41532;SDS011;27262;-35.248;149.138;2022-07-05T03:03:02;3.55;;;0.73;;
41532;SDS011;27262;-35.248;149.138;2022-07-05T03:05:32;4.55;;;0.90;;
41532;SDS011;27262;-35.248;149.138;2022-07-05T03:08:02;5.45;;;0.88;;
41532;SDS011;27262;-35.248;149.138;2022-07-05T03:10:33;3.83;;;0.68;;
41532;SDS011;27262;-35.248;149.138;2022-07-05T03:13:05;2.50;;;0.70;;
41532;SDS011;27262;-35.248;149.138;2022-07-05T03:15:35;2.22;;;0.50;;
41532;SDS011;27262;-35.248;149.138;2022-07-05T03:18:05;4.93;;;0.88;;
41532;SDS011;27262;-35.248;149.138;2022-07-05T03:20:35;2.08;;;0.57;;
41532;SDS011;27262;-35.248;149.138;2022-07-05T03:23:06;4.45;;;0.63;;
41532;SDS011;27262;-35.248;149.138;2022-07-05T03:25:36;2.38;;;0.70;;
41532;SDS011;27262;-35.248;149.138;2022-07-05T03:28:06;2.53;;;0.70;;
41532;SDS011;27262;-35.248;149.138;2022-07-05T03:30:36;4.07;;;0.77;;
41532;SDS011;27262;-35.248;149.138;2022-07-05T03:33:07;2.88;;;1.08;;
41532;SDS011;27262;-35.248;149.138;2022-07-05T03:35:37;1.13;;;0.60;;
41532;SDS011;27262;-35.248;149.138;2022-07-05T03:38:08;2.88;;;0.60;;
41532;SDS011;27262;-35.248;149.138;2022-07-05T03:40:38;1.25;;;0.55;;
41532;SDS011;27262;-35.248;149.138;2022-07-05T03:43:09;2.53;;;1.00;;
41532;SDS011;27262;-35.248;149.138;2022-07-05T03:45:39;2.30;;;0.82;;
41532;SDS011;27262;-35.248;149.138;2022-07-05T03:48:09;1.08;;;0.60;;
41532;SDS011;27262;-35.248;149.138;2022-07-05T03:50:59;1.92;;;0.85;;
41532;SDS011;27262;-35.248;149.138;2022-07-05T03:53:30;2.65;;;0.80;;
41532;SDS011;27262;-35.248;149.138;2022-07-05T03:56:00;1.25;;;0.75;;
41532;SDS011;27262;-35.248;149.138;2022-07-05T03:58:31;1.60;;;0.70;;
41532;SDS011;27262;-35.248;149.138;2022-07-05T04:01:01;4.00;;;0.70;;
41532;SDS011;27262;-35.248;149.138;2022-07-05T04:03:32;2.28;;;0.75;;
41532;SDS011;27262;-35.248;149.138;2022-07-05T04:06:10;2.65;;;0.60;;
41532;SDS011;27262;-35.248;149.138;2022-07-05T04:08:41;1.63;;;0.52;;
41532;SDS011;27262;-35.248;149.138;2022-07-05T04:11:11;2.03;;;0.40;;
41532;SDS011;27262;-35.248;149.138;2022-07-05T04:13:44;3.25;;;0.70;;
41532;SDS011;27262;-35.248;149.138;2022-07-05T04:16:14;1.80;;;0.50;;
41532;SDS011;27262;-35.248;149.138;2022-07-05T04:18:45;1.98;;;0.43;;
41532;SDS011;27262;-35.248;149.138;2022-07-05T04:21:15;0.80;;;0.40;;
41532;SDS011;27262;-35.248;149.138;2022-07-05T04:23:45;1.20;;;0.50;;
41532;SDS011;27262;-35.248;149.138;2022-07-05T04:26:15;1.40;;;0.52;;
41532;SDS011;27262;-35.248;149.138;2022-07-05T04:28:46;1.00;;;0.50;;
41532;SDS011;27262;-35.248;149.138;2022-07-05T04:31:22;2.92;;;0.50;;
41532;SDS011;27262;-35.248;149.138;2022-07-05T04:33:53;3.40;;;0.40;;
41532;SDS011;27262;-35.248;149.138;2022-07-05T04:36:23;2.72;;;0.40;;
41532;SDS011;27262;-35.248;149.138;2022-07-05T04:38:53;1.20;;;0.35;;
41532;SDS011;27262;-35.248;149.138;2022-07-05T04:41:24;2.33;;;0.40;;
41532;SDS011;27262;-35.248;149.138;2022-07-05T04:43:54;1.88;;;0.60;;
41532;SDS011;27262;-35.248;149.138;2022-07-05T04:46:25;1.60;;;0.40;;
41532;SDS011;27262;-35.248;149.138;2022-07-05T04:48:55;1.15;;;0.50;;
41532;SDS011;27262;-35.248;149.138;2022-07-05T04:51:25;0.47;;;0.30;;
41532;SDS011;27262;-35.248;149.138;2022-07-05T04:53:56;1.15;;;0.40;;
41532;SDS011;27262;-35.248;149.138;2022-07-05T04:56:26;0.60;;;0.40;;
41532;SDS011;27262;-35.248;149.138;2022-07-05T04:58:56;2.30;;;0.40;;
41532;SDS011;27262;-35.248;149.138;2022-07-05T05:01:27;1.40;;;0.28;;
41532;SDS011;27262;-35.248;149.138;2022-07-05T05:03:57;0.93;;;0.30;;
41532;SDS011;27262;-35.248;149.138;2022-07-05T05:06:27;2.25;;;0.60;;
41532;SDS011;27262;-35.248;149.138;2022-07-05T05:08:58;2.58;;;0.30;;
41532;SDS011;27262;-35.248;149.138;2022-07-05T05:11:28;1.13;;;0.60;;
41532;SDS011;27262;-35.248;149.138;2022-07-05T05:13:58;1.20;;;0.30;;
41532;SDS011;27262;-35.248;149.138;2022-07-05T05:16:28;0.40;;;0.25;;
41532;SDS011;27262;-35.248;149.138;2022-07-05T05:19:01;2.45;;;0.40;;
41532;SDS011;27262;-35.248;149.138;2022-07-05T05:21:31;1.95;;;0.40;;
41532;SDS011;27262;-35.248;149.138;2022-07-05T05:24:02;2.20;;;0.38;;
41532;SDS011;27262;-35.248;149.138;2022-07-05T05:26:32;2.58;;;0.20;;
41532;SDS011;27262;-35.248;149.138;2022-07-05T05:29:03;2.58;;;0.32;;
41532;SDS011;27262;-35.248;149.138;2022-07-05T05:31:33;2.13;;;0.40;;
41532;SDS011;27262;-35.248;149.138;2022-07-05T05:34:03;3.28;;;0.47;;
41532;SDS011;27262;-35.248;149.138;2022-07-05T05:36:34;2.03;;;0.40;;
41532;SDS011;27262;-35.248;149.138;2022-07-05T05:39:05;1.48;;;0.22;;
41532;SDS011;27262;-35.248;149.138;2022-07-05T05:41:35;1.25;;;0.40;;
41532;SDS011;27262;-35.248;149.138;2022-07-05T05:44:05;0.85;;;0.20;;
41532;SDS011;27262;-35.248;149.138;2022-07-05T05:46:35;1.23;;;0.40;;
41532;SDS011;27262;-35.248;149.138;2022-07-05T05:49:06;0.90;;;0.32;;
41532;SDS011;27262;-35.248;149.138;2022-07-05T05:51:36;0.68;;;0.20;;
41532;SDS011;27262;-35.248;149.138;2022-07-05T05:54:10;1.75;;;0.30;;
41532;SDS011;27262;-35.248;149.138;2022-07-05T05:56:40;0.65;;;0.30;;
41532;SDS011;27262;-35.248;149.138;2022-07-05T05:59:10;1.02;;;0.20;;
41532;SDS011;27262;-35.248;149.138;2022-07-05T06:01:40;0.77;;;0.30;;
41532;SDS011;27262;-35.248;149.138;2022-07-05T06:04:11;0.88;;;0.32;;
41532;SDS011;27262;-35.248;149.138;2022-07-05T06:06:41;2.65;;;0.35;;
41532;SDS011;27262;-35.248;149.138;2022-07-05T06:09:11;1.88;;;0.40;;
41532;SDS011;27262;-35.248;149.138;2022-07-05T06:11:42;3.83;;;0.30;;
41532;SDS011;27262;-35.248;149.138;2022-07-05T06:14:12;1.60;;;0.40;;
41532;SDS011;27262;-35.248;149.138;2022-07-05T06:16:42;0.40;;;0.20;;
41532;SDS011;27262;-35.248;149.138;2022-07-05T06:19:12;1.83;;;0.30;;
41532;SDS011;27262;-35.248;149.138;2022-07-05T06:21:42;1.77;;;0.32;;
41532;SDS011;27262;-35.248;149.138;2022-07-05T06:24:12;3.80;;;0.30;;
41532;SDS011;27262;-35.248;149.138;2022-07-05T06:26:43;1.63;;;0.70;;
41532;SDS011;27262;-35.248;149.138;2022-07-05T06:29:13;3.05;;;0.20;;
41532;SDS011;27262;-35.248;149.138;2022-07-05T06:31:43;0.55;;;0.30;;
41532;SDS011;27262;-35.248;149.138;2022-07-05T06:34:13;2.05;;;0.28;;
41532;SDS011;27262;-35.248;149.138;2022-07-05T06:36:43;3.00;;;0.47;;
41532;SDS011;27262;-35.248;149.138;2022-07-05T06:39:14;4.13;;;0.32;;
41532;SDS011;27262;-35.248;149.138;2022-07-05T06:41:44;4.35;;;0.38;;
41532;SDS011;27262;-35.248;149.138;2022-07-05T06:44:14;4.20;;;0.40;;
41532;SDS011;27262;-35.248;149.138;2022-07-05T06:47:02;0.60;;;0.20;;
41532;SDS011;27262;-35.248;149.138;2022-07-05T06:49:32;3.67;;;0.30;;
41532;SDS011;27262;-35.248;149.138;2022-07-05T06:52:03;1.25;;;0.30;;
41532;SDS011;27262;-35.248;149.138;2022-07-05T06:54:34;3.92;;;0.60;;
41532;SDS011;27262;-35.248;149.138;2022-07-05T06:57:19;2.58;;;0.40;;
41532;SDS011;27262;-35.248;149.138;2022-07-05T06:59:58;0.17;;;0.15;;
41532;SDS011;27262;-35.248;149.138;2022-07-05T07:02:30;0.82;;;0.30;;
41532;SDS011;27262;-35.248;149.138;2022-07-05T07:05:01;2.85;;;0.30;;
41532;SDS011;27262;-35.248;149.138;2022-07-05T07:07:36;5.88;;;0.50;;
41532;SDS011;27262;-35.248;149.138;2022-07-05T07:10:24;0.95;;;0.30;;
41532;SDS011;27262;-35.248;149.138;2022-07-05T07:12:57;1.92;;;0.20;;
41532;SDS011;27262;-35.248;149.138;2022-07-05T07:15:29;0.52;;;0.30;;
41532;SDS011;27262;-35.248;149.138;2022-07-05T07:18:00;3.17;;;0.20;;
41532;SDS011;27262;-35.248;149.138;2022-07-05T07:20:30;3.30;;;0.20;;
41532;SDS011;27262;-35.248;149.138;2022-07-05T07:23:01;1.10;;;0.20;;
41532;SDS011;27262;-35.248;149.138;2022-07-05T07:25:31;0.40;;;0.30;;
41532;SDS011;27262;-35.248;149.138;2022-07-05T07:28:01;1.05;;;0.30;;
41532;SDS011;27262;-35.248;149.138;2022-07-05T07:30:33;1.58;;;0.22;;
41532;SDS011;27262;-35.248;149.138;2022-07-05T07:33:04;0.82;;;0.22;;
41532;SDS011;27262;-35.248;149.138;2022-07-05T07:35:48;1.20;;;0.40;;
41532;SDS011;27262;-35.248;149.138;2022-07-05T07:38:18;1.00;;;0.25;;
41532;SDS011;27262;-35.248;149.138;2022-07-05T07:40:58;2.72;;;0.40;;
41532;SDS011;27262;-35.248;149.138;2022-07-05T07:43:28;1.45;;;0.20;;
41532;SDS011;27262;-35.248;149.138;2022-07-05T07:45:59;0.85;;;0.20;;
41532;SDS011;27262;-35.248;149.138;2022-07-05T07:48:29;0.50;;;0.30;;
41532;SDS011;27262;-35.248;149.138;2022-07-05T07:50:59;0.95;;;0.45;;
41532;SDS011;27262;-35.248;149.138;2022-07-05T07:53:30;0.55;;;0.35;;
41532;SDS011;27262;-35.248;149.138;2022-07-05T07:56:00;0.80;;;0.20;;
41532;SDS011;27262;-35.248;149.138;2022-07-05T07:58:30;1.48;;;0.30;;
41532;SDS011;27262;-35.248;149.138;2022-07-05T08:01:01;1.83;;;0.13;;
41532;SDS011;27262;-35.248;149.138;2022-07-05T08:03:31;2.17;;;0.43;;
41532;SDS011;27262;-35.248;149.138;2022-07-05T08:06:02;1.10;;;0.25;;
41532;SDS011;27262;-35.248;149.138;2022-07-05T08:08:33;0.75;;;0.30;;
41532;SDS011;27262;-35.248;149.138;2022-07-05T08:11:04;1.13;;;0.25;;
41532;SDS011;27262;-35.248;149.138;2022-07-05T08:13:36;1.40;;;0.32;;
41532;SDS011;27262;-35.248;149.138;2022-07-05T08:16:09;2.42;;;0.40;;
41532;SDS011;27262;-35.248;149.138;2022-07-05T08:18:40;0.70;;;0.30;;
41532;SDS011;27262;-35.248;149.138;2022-07-05T08:21:29;1.20;;;0.30;;
41532;SDS011;27262;-35.248;149.138;2022-07-05T08:24:09;0.32;;;0.25;;
41532;SDS011;27262;-35.248;149.138;2022-07-05T08:26:43;2.45;;;0.30;;
41532;SDS011;27262;-35.248;149.138;2022-07-05T08:29:14;0.65;;;0.40;;
41532;SDS011;27262;-35.248;149.138;2022-07-05T08:31:50;1.58;;;0.40;;
41532;SDS011;27262;-35.248;149.138;2022-07-05T08:34:21;0.75;;;0.38;;
41532;SDS011;27262;-35.248;149.138;2022-07-05T08:36:51;0.30;;;0.20;;
41532;SDS011;27262;-35.248;149.138;2022-07-05T08:39:21;1.55;;;0.40;;
41532;SDS011;27262;-35.248;149.138;2022-07-05T08:41:52;1.00;;;0.40;;
41532;SDS011;27262;-35.248;149.138;2022-07-05T08:44:23;0.63;;;0.38;;
41532;SDS011;27262;-35.248;149.138;2022-07-05T08:46:57;1.15;;;0.30;;
41532;SDS011;27262;-35.248;149.138;2022-07-05T08:49:28;1.88;;;0.47;;
41532;SDS011;27262;-35.248;149.138;2022-07-05T08:52:02;0.60;;;0.30;;
41532;SDS011;27262;-35.248;149.138;2022-07-05T08:54:34;1.30;;;0.30;;
41532;SDS011;27262;-35.248;149.138;2022-07-05T08:57:06;1.20;;;0.20;;
41532;SDS011;27262;-35.248;149.138;2022-07-05T08:59:40;0.93;;;0.40;;
41532;SDS011;27262;-35.248;149.138;2022-07-05T09:02:11;0.20;;;0.20;;
41532;SDS011;27262;-35.248;149.138;2022-07-05T09:04:45;0.50;;;0.30;;
41532;SDS011;27262;-35.248;149.138;2022-07-05T09:07:19;0.77;;;0.30;;
41532;SDS011;27262;-35.248;149.138;2022-07-05T09:09:51;0.65;;;0.25;;
41532;SDS011;27262;-35.248;149.138;2022-07-05T09:12:23;0.57;;;0.25;;
41532;SDS011;27262;-35.248;149.138;2022-07-05T09:14:54;0.57;;;0.30;;
41532;SDS011;27262;-35.248;149.138;2022-07-05T09:17:25;0.63;;;0.30;;
41532;SDS011;27262;-35.248;149.138;2022-07-05T09:20:07;0.63;;;0.40;;
41532;SDS011;27262;-35.248;149.138;2022-07-05T09:28:02;0.28;;;0.20;;
41532;SDS011;27262;-35.248;149.138;2022-07-05T09:35:54;0.77;;;0.30;;
41532;SDS011;27262;-35.248;149.138;2022-07-05T09:38:29;0.68;;;0.35;;
41532;SDS011;27262;-35.248;149.138;2022-07-05T09:40:59;0.38;;;0.30;;
41532;SDS011;27262;-35.248;149.138;2022-07-05T09:43:30;0.35;;;0.20;;
41532;SDS011;27262;-35.248;149.138;2022-07-05T09:46:01;1.85;;;0.40;;
41532;SDS011;27262;-35.248;149.138;2022-07-05T09:48:33;0.30;;;0.20;;
41532;SDS011;27262;-35.248;149.138;2022-07-05T09:51:09;0.93;;;0.30;;
41532;SDS011;27262;-35.248;149.138;2022-07-05T09:54:04;0.40;;;0.30;;
41532;SDS011;27262;-35.248;149.138;2022-07-05T09:56:44;1.48;;;0.30;;
41532;SDS011;27262;-35.248;149.138;2022-07-05T09:59:19;0.45;;;0.10;;
41532;SDS011;27262;-35.248;149.138;2022-07-05T10:01:50;0.20;;;0.10;;
41532;SDS011;27262;-35.248;149.138;2022-07-05T10:04:21;0.55;;;0.30;;
41532;SDS011;27262;-35.248;149.138;2022-07-05T10:06:52;0.10;;;0.10;;
41532;SDS011;27262;-35.248;149.138;2022-07-05T10:09:23;0.50;;;0.32;;
41532;SDS011;27262;-35.248;149.138;2022-07-05T10:11:53;0.63;;;0.40;;
41532;SDS011;27262;-35.248;149.138;2022-07-05T10:14:23;0.40;;;0.30;;
41532;SDS011;27262;-35.248;149.138;2022-07-05T10:17:02;0.50;;;0.40;;
41532;SDS011;27262;-35.248;149.138;2022-07-05T10:19:36;0.50;;;0.43;;
41532;SDS011;27262;-35.248;149.138;2022-07-05T10:22:10;0.85;;;0.30;;
41532;SDS011;27262;-35.248;149.138;2022-07-05T10:24:45;1.35;;;0.40;;
41532;SDS011;27262;-35.248;149.138;2022-07-05T10:27:17;2.35;;;0.30;;
41532;SDS011;27262;-35.248;149.138;2022-07-05T10:29:49;0.68;;;0.30;;
41532;SDS011;27262;-35.248;149.138;2022-07-05T10:32:22;0.50;;;0.20;;
41532;SDS011;27262;-35.248;149.138;2022-07-05T10:34:53;0.20;;;0.20;;
41532;SDS011;27262;-35.248;149.138;2022-07-05T10:37:25;0.88;;;0.30;;
41532;SDS011;27262;-35.248;149.138;2022-07-05T10:39:57;0.50;;;0.30;;
41532;SDS011;27262;-35.248;149.138;2022-07-05T10:42:31;0.85;;;0.30;;
41532;SDS011;27262;-35.248;149.138;2022-07-05T10:45:27;2.55;;;0.32;;
41532;SDS011;27262;-35.248;149.138;2022-07-05T11:03:43;1.10;;;0.38;;
41532;SDS011;27262;-35.248;149.138;2022-07-05T11:06:24;0.55;;;0.40;;
41532;SDS011;27262;-35.248;149.138;2022-07-05T11:17:10;2.60;;;0.30;;
41532;SDS011;27262;-35.248;149.138;2022-07-05T11:20:04;1.20;;;0.40;;
41532;SDS011;27262;-35.248;149.138;2022-07-05T11:22:36;1.67;;;0.40;;
41532;SDS011;27262;-35.248;149.138;2022-07-05T11:25:10;2.60;;;0.50;;
41532;SDS011;27262;-35.248;149.138;2022-07-05T11:27:59;1.23;;;0.38;;
41532;SDS011;27262;-35.248;149.138;2022-07-05T11:33:28;0.40;;;0.30;;
41532;SDS011;27262;-35.248;149.138;2022-07-05T11:36:04;1.80;;;0.40;;
41532;SDS011;27262;-35.248;149.138;2022-07-05T11:38:57;0.63;;;0.40;;
41532;SDS011;27262;-35.248;149.138;2022-07-05T11:41:44;0.30;;;0.30;;
41532;SDS011;27262;-35.248;149.138;2022-07-05T11:44:16;1.27;;;0.30;;
41532;SDS011;27262;-35.248;149.138;2022-07-05T11:46:46;0.40;;;0.32;;
41532;SDS011;27262;-35.248;149.138;2022-07-05T11:49:18;0.70;;;0.45;;
41532;SDS011;27262;-35.248;149.138;2022-07-05T11:51:57;1.70;;;0.30;;
41532;SDS011;27262;-35.248;149.138;2022-07-05T11:54:30;0.40;;;0.20;;
41532;SDS011;27262;-35.248;149.138;2022-07-05T11:57:02;0.70;;;0.40;;
41532;SDS011;27262;-35.248;149.138;2022-07-05T11:59:37;3.53;;;0.40;;
41532;SDS011;27262;-35.248;149.138;2022-07-05T12:02:09;1.63;;;0.40;;
41532;SDS011;27262;-35.248;149.138;2022-07-05T12:04:40;0.40;;;0.30;;
41532;SDS011;27262;-35.248;149.138;2022-07-05T12:07:31;1.58;;;0.40;;
41532;SDS011;27262;-35.248;149.138;2022-07-05T12:10:03;0.63;;;0.30;;
41532;SDS011;27262;-35.248;149.138;2022-07-05T12:13:11;1.95;;;0.40;;
41532;SDS011;27262;-35.248;149.138;2022-07-05T12:15:42;0.30;;;0.30;;
41532;SDS011;27262;-35.248;149.138;2022-07-05T12:18:15;0.85;;;0.52;;
41532;SDS011;27262;-35.248;149.138;2022-07-05T12:20:45;0.30;;;0.30;;
41532;SDS011;27262;-35.248;149.138;2022-07-05T12:23:22;0.20;;;0.20;;
41532;SDS011;27262;-35.248;149.138;2022-07-05T12:25:58;0.80;;;0.32;;
41532;SDS011;27262;-35.248;149.138;2022-07-05T12:28:28;0.43;;;0.30;;
41532;SDS011;27262;-35.248;149.138;2022-07-05T12:30:59;0.30;;;0.30;;
41532;SDS011;27262;-35.248;149.138;2022-07-05T12:33:30;0.22;;;0.20;;
41532;SDS011;27262;-35.248;149.138;2022-07-05T12:36:01;0.47;;;0.30;;
41532;SDS011;27262;-35.248;149.138;2022-07-05T12:38:31;0.63;;;0.20;;
41532;SDS011;27262;-35.248;149.138;2022-07-05T12:41:02;0.30;;;0.30;;
41532;SDS011;27262;-35.248;149.138;2022-07-05T12:43:32;0.30;;;0.30;;
41532;SDS011;27262;-35.248;149.138;2022-07-05T12:46:16;0.30;;;0.20;;
41532;SDS011;27262;-35.248;149.138;2022-07-05T12:48:53;0.40;;;0.35;;
41532;SDS011;27262;-35.248;149.138;2022-07-05T12:54:07;0.98;;;0.30;;
41532;SDS011;27262;-35.248;149.138;2022-07-05T12:57:09;0.20;;;0.20;;
41532;SDS011;27262;-35.248;149.138;2022-07-05T13:00:06;0.50;;;0.30;;
41532;SDS011;27262;-35.248;149.138;2022-07-05T13:02:44;1.00;;;0.40;;
41532;SDS011;27262;-35.248;149.138;2022-07-05T13:05:22;1.13;;;0.20;;
41532;SDS011;27262;-35.248;149.138;2022-07-05T13:07:54;0.17;;;0.17;;
41532;SDS011;27262;-35.248;149.138;2022-07-05T13:10:26;1.88;;;0.30;;
41532;SDS011;27262;-35.248;149.138;2022-07-05T13:13:06;8.18;;;0.52;;
41532;SDS011;27262;-35.248;149.138;2022-07-05T13:15:36;4.80;;;0.47;;
41532;SDS011;27262;-35.248;149.138;2022-07-05T13:18:07;2.60;;;0.30;;
41532;SDS011;27262;-35.248;149.138;2022-07-05T13:20:37;0.90;;;0.35;;
41532;SDS011;27262;-35.248;149.138;2022-07-05T13:23:08;1.73;;;0.40;;
41532;SDS011;27262;-35.248;149.138;2022-07-05T13:25:38;0.98;;;0.22;;
41532;SDS011;27262;-35.248;149.138;2022-07-05T13:28:08;0.98;;;0.30;;
41532;SDS011;27262;-35.248;149.138;2022-07-05T13:30:39;0.57;;;0.30;;
41532;SDS011;27262;-35.248;149.138;2022-07-05T13:33:09;0.20;;;0.20;;
41532;SDS011;27262;-35.248;149.138;2022-07-05T13:35:39;1.23;;;0.40;;
41532;SDS011;27262;-35.248;149.138;2022-07-05T13:38:09;1.13;;;0.30;;
41532;SDS011;27262;-35.248;149.138;2022-07-05T13:40:40;1.65;;;0.30;;
41532;SDS011;27262;-35.248;149.138;2022-07-05T13:43:11;0.30;;;0.20;;
41532;SDS011;27262;-35.248;149.138;2022-07-05T13:45:41;0.60;;;0.25;;
41532;SDS011;27262;-35.248;149.138;2022-07-05T13:48:11;0.57;;;0.30;;
41532;SDS011;27262;-35.248;149.138;2022-07-05T13:50:42;0.45;;;0.20;;
41532;SDS011;27262;-35.248;149.138;2022-07-05T13:53:21;1.10;;;0.35;;
41532;SDS011;27262;-35.248;149.138;2022-07-05T13:55:51;0.82;;;0.40;;
41532;SDS011;27262;-35.248;149.138;2022-07-05T13:58:22;0.47;;;0.28;;
41532;SDS011;27262;-35.248;149.138;2022-07-05T14:00:52;1.27;;;0.30;;
41532;SDS011;27262;-35.248;149.138;2022-07-05T14:03:23;2.08;;;0.50;;
41532;SDS011;27262;-35.248;149.138;2022-07-05T14:05:54;0.50;;;0.22;;
41532;SDS011;27262;-35.248;149.138;2022-07-05T14:08:26;0.25;;;0.20;;
41532;SDS011;27262;-35.248;149.138;2022-07-05T14:10:59;0.50;;;0.38;;
41532;SDS011;27262;-35.248;149.138;2022-07-05T14:13:30;0.82;;;0.35;;
41532;SDS011;27262;-35.248;149.138;2022-07-05T14:16:01;2.15;;;0.50;;
41532;SDS011;27262;-35.248;149.138;2022-07-05T14:18:32;1.15;;;0.40;;
41532;SDS011;27262;-35.248;149.138;2022-07-05T14:21:03;1.58;;;0.47;;
41532;SDS011;27262;-35.248;149.138;2022-07-05T14:23:33;0.60;;;0.38;;
41532;SDS011;27262;-35.248;149.138;2022-07-05T14:26:03;3.20;;;0.63;;
41532;SDS011;27262;-35.248;149.138;2022-07-05T14:28:34;1.23;;;0.52;;
41532;SDS011;27262;-35.248;149.138;2022-07-05T14:31:05;0.68;;;0.40;;
41532;SDS011;27262;-35.248;149.138;2022-07-05T14:33:35;0.65;;;0.30;;
41532;SDS011;27262;-35.248;149.138;2022-07-05T14:36:08;0.60;;;0.32;;
41532;SDS011;27262;-35.248;149.138;2022-07-05T14:38:40;2.35;;;0.30;;
41532;SDS011;27262;-35.248;149.138;2022-07-05T14:41:11;0.52;;;0.30;;
41532;SDS011;27262;-35.248;149.138;2022-07-05T14:43:42;0.45;;;0.30;;
41532;SDS011;27262;-35.248;149.138;2022-07-05T14:46:12;0.98;;;0.40;;
41532;SDS011;27262;-35.248;149.138;2022-07-05T14:48:46;0.65;;;0.43;;
41532;SDS011;27262;-35.248;149.138;2022-07-05T14:51:17;0.30;;;0.30;;
41532;SDS011;27262;-35.248;149.138;2022-07-05T14:53:48;1.48;;;0.40;;
41532;SDS011;27262;-35.248;149.138;2022-07-05T14:56:18;1.08;;;0.40;;
41532;SDS011;27262;-35.248;149.138;2022-07-05T14:58:48;0.45;;;0.30;;
41532;SDS011;27262;-35.248;149.138;2022-07-05T15:01:19;0.73;;;0.43;;
41532;SDS011;27262;-35.248;149.138;2022-07-05T15:03:49;1.10;;;0.50;;
41532;SDS011;27262;-35.248;149.138;2022-07-05T15:06:19;1.13;;;0.50;;
41532;SDS011;27262;-35.248;149.138;2022-07-05T15:08:50;1.27;;;0.25;;
41532;SDS011;27262;-35.248;149.138;2022-07-05T15:11:25;1.48;;;0.47;;
41532;SDS011;27262;-35.248;149.138;2022-07-05T15:13:57;0.70;;;0.40;;
41532;SDS011;27262;-35.248;149.138;2022-07-05T15:16:32;1.00;;;0.45;;
41532;SDS011;27262;-35.248;149.138;2022-07-05T15:19:05;0.95;;;0.52;;